Time;durP1;ratioP1;P1;durP2;ratioP2;P2;SDS_P1;SDS_P2;PMS_P1;PMS_P2;Temp;Humidity;BMP_temperature;BMP_pressure;BME280_temperature;BME280_humidity;BME280_pressure;Samples;Min_cycle;Max_cycle;Signal;HPM_P1;HPM_P2
2022/05/06 00:01:30;;;;;;;8.48;7.68;;;;;;;13.10;65.65;101774.50;5036436;28;20057;-46
2022/05/06 00:03:56;;;;;;;8.60;7.68;;;;;;;13.10;65.84;101771.81;5054196;28;20036;-46
2022/05/06 00:06:22;;;;;;;10.95;8.10;;;;;;;13.06;65.77;101770.50;5036501;28;20033;-46
2022/05/06 00:08:47;;;;;;;9.27;8.38;;;;;;;13.01;66.04;101776.41;5036336;28;20033;-45
2022/05/06 00:11:13;;;;;;;8.20;7.40;;;;;;;12.97;65.78;101764.31;5053803;28;20112;-45
2022/05/06 00:13:39;;;;;;;11.98;9.35;;;;;;;13.05;65.46;101768.81;5053596;28;20033;-45
2022/05/06 00:16:05;;;;;;;9.73;8.73;;;;;;;13.06;65.97;101770.50;5052501;28;20086;-45
2022/05/06 00:18:31;;;;;;;7.50;6.68;;;;;;;13.03;65.38;101757.38;5052890;28;20438;-45
2022/05/06 00:20:58;;;;;;;7.70;6.90;;;;;;;13.07;65.20;101770.28;5054252;28;20033;-46
2022/05/06 00:23:24;;;;;;;12.32;8.32;;;;;;;13.08;65.41;101760.38;5054130;28;20036;-47
2022/05/06 00:25:50;;;;;;;9.80;7.82;;;;;;;13.08;65.42;101761.19;5055093;28;20029;-45
2022/05/06 00:28:16;;;;;;;9.48;7.20;;;;;;;13.04;65.30;101756.31;5055727;28;20028;-47
2022/05/06 00:30:42;;;;;;;13.43;8.18;;;;;;;13.04;65.45;101767.13;5039878;28;20329;-46
2022/05/06 00:33:09;;;;;;;14.35;8.70;;;;;;;13.00;65.99;101763.09;5022221;28;20033;-51
2022/05/06 00:35:36;;;;;;;11.65;7.88;;;;;;;13.02;65.33;101769.16;5039469;28;20025;-49
2022/05/06 00:38:03;;;;;;;12.23;8.63;;;;;;;12.93;65.30;101768.38;5063130;28;20079;-49
2022/05/06 00:40:29;;;;;;;12.32;8.07;;;;;;;12.95;66.01;101764.47;5039707;28;20029;-46
2022/05/06 00:42:56;;;;;;;11.65;8.20;;;;;;;12.90;65.71;101747.16;5038187;28;20028;-46
2022/05/06 00:45:22;;;;;;;10.63;8.48;;;;;;;12.89;65.92;101751.72;5054391;28;20135;-47
2022/05/06 00:47:49;;;;;;;11.90;8.48;;;;;;;12.85;66.51;101757.63;5055353;28;20029;-48
2022/05/06 00:50:17;;;;;;;13.10;8.02;;;;;;;12.79;66.56;101751.09;5036950;28;20381;-51
2022/05/06 00:52:43;;;;;;;11.50;8.63;;;;;;;12.85;66.85;101750.41;5056084;28;20461;-51
2022/05/06 00:55:09;;;;;;;13.98;8.88;;;;;;;12.85;66.92;101753.09;5057596;28;20040;-51
2022/05/06 00:57:36;;;;;;;15.18;9.75;;;;;;;12.86;67.48;101757.44;5058345;28;20039;-51
2022/05/06 01:00:20;;;;;;;16.30;9.23;;;;;;;12.84;67.86;101755.97;5057571;28;20354;-51
2022/05/06 01:02:47;;;;;;;10.43;8.57;;;;;;;12.83;67.59;101755.09;5057860;28;20108;-51
2022/05/06 01:05:14;;;;;;;15.60;9.77;;;;;;;12.77;67.84;101753.13;5058934;28;20035;-50
2022/05/06 01:07:41;;;;;;;12.30;9.32;;;;;;;12.79;68.11;101757.31;5059741;28;20033;-46
2022/05/06 01:10:07;;;;;;;17.27;10.10;;;;;;;12.70;67.89;101742.22;5056729;28;20088;-47
2022/05/06 01:12:33;;;;;;;14.13;9.43;;;;;;;12.73;67.98;101758.03;5038739;28;20032;-45
2022/05/06 01:14:59;;;;;;;19.08;9.98;;;;;;;12.68;68.16;101756.88;5036990;28;20063;-48
2022/05/06 01:17:25;;;;;;;14.98;10.57;;;;;;;12.64;68.85;101752.84;5055243;28;20029;-45
2022/05/06 01:19:51;;;;;;;16.05;10.13;;;;;;;12.59;68.69;101756.91;5053810;28;20032;-48
2022/05/06 01:22:17;;;;;;;15.88;10.90;;;;;;;12.57;68.62;101750.00;5035715;28;20068;-46
2022/05/06 01:24:44;;;;;;;15.13;9.52;;;;;;;12.58;68.27;101755.22;5052940;28;20441;-46
2022/05/06 01:27:26;;;;;;;19.75;9.80;;;;;;;12.56;68.65;101756.44;5035427;28;20028;-47
2022/05/06 01:29:53;;;;;;;19.55;10.30;;;;;;;12.48;69.01;101753.75;5052597;28;20146;-45
2022/05/06 01:32:22;;;;;;;13.13;9.68;;;;;;;12.44;68.95;101747.88;5053251;28;20043;-47
2022/05/06 01:34:50;;;;;;;16.63;10.27;;;;;;;12.38;68.48;101740.47;5034756;28;20034;-46
2022/05/06 01:37:19;;;;;;;19.85;9.75;;;;;;;12.42;68.60;101757.97;5034861;28;20071;-47
2022/05/06 01:39:51;;;;;;;18.08;9.90;;;;;;;12.32;68.99;101738.50;5053775;28;20025;-48
2022/05/06 01:42:20;;;;;;;17.08;9.32;;;;;;;12.34;69.01;101748.06;5054386;28;20029;-53
2022/05/06 01:44:49;;;;;;;16.58;9.15;;;;;;;12.34;69.19;101758.03;5051501;28;20073;-47
2022/05/06 01:47:21;;;;;;;17.67;9.70;;;;;;;12.32;69.14;101750.09;5035932;28;20091;-48
2022/05/06 01:49:49;;;;;;;18.08;9.75;;;;;;;12.29;69.00;101750.44;5039162;28;20167;-50
2022/05/06 01:52:17;;;;;;;13.05;9.68;;;;;;;12.16;69.67;101734.81;5053813;28;20055;-47
2022/05/06 01:54:43;;;;;;;19.73;10.43;;;;;;;12.25;69.43;101751.81;5053464;28;20061;-47
2022/05/06 01:57:09;;;;;;;20.33;10.60;;;;;;;12.15;69.71;101745.78;5035838;28;20033;-46
2022/05/06 01:59:35;;;;;;;18.90;10.48;;;;;;;12.18;69.82;101757.06;5051429;28;20029;-46
2022/05/06 02:02:01;;;;;;;18.13;9.27;;;;;;;12.01;69.98;101739.25;5051989;28;20037;-48
2022/05/06 02:07:12;;;;;;;21.60;10.02;;;;;;;12.06;70.33;101771.88;5037947;28;20457;-46
2022/05/06 02:09:38;;;;;;;18.85;10.57;;;;;;;12.00;70.67;101776.09;5052380;28;20443;-47
2022/05/06 02:12:05;;;;;;;13.75;8.38;;;;;;;11.92;70.32;101762.66;5052274;28;20132;-46
2022/05/06 02:14:31;;;;;;;16.27;10.13;;;;;;;11.93;70.98;101771.59;5052356;28;20041;-47
2022/05/06 02:16:57;;;;;;;16.20;10.65;;;;;;;11.87;70.54;101764.13;5051585;28;20413;-47
2022/05/06 02:19:23;;;;;;;16.88;10.43;;;;;;;11.89;70.78;101767.53;5052975;28;20049;-50
2022/05/06 02:21:49;;;;;;;18.10;10.43;;;;;;;11.88;70.95;101774.72;5052521;28;20048;-47
2022/05/06 02:24:14;;;;;;;16.38;10.05;;;;;;;11.86;69.94;101770.53;5052180;28;20033;-47
2022/05/06 02:26:40;;;;;;;17.95;10.18;;;;;;;11.73;70.74;101754.91;5051891;28;20180;-48
2022/05/06 02:29:06;;;;;;;18.17;9.98;;;;;;;11.76;70.51;101766.19;5052713;28;20040;-46
2022/05/06 02:34:18;;;;;;;13.70;8.98;;;;;;;11.73;70.05;101768.38;5036932;28;20037;-46
2022/05/06 02:36:45;;;;;;;19.40;10.82;;;;;;;11.68;70.84;101765.34;5052419;28;20412;-47
2022/05/06 02:39:11;;;;;;;16.92;10.18;;;;;;;11.69;70.36;101767.84;5054325;28;20025;-48
2022/05/06 02:41:37;;;;;;;24.60;10.20;;;;;;;11.67;71.02;101777.13;5056220;28;20028;-47
2022/05/06 02:44:04;;;;;;;18.17;10.50;;;;;;;11.55;70.70;101753.25;5056224;28;20035;-46
2022/05/06 02:46:33;;;;;;;17.02;9.57;;;;;;;11.63;70.22;101769.38;5055562;28;20052;-46
2022/05/06 02:49:00;;;;;;;13.52;8.95;;;;;;;11.61;70.53;101770.56;5022249;28;20074;-47
2022/05/06 02:51:28;;;;;;;18.05;9.82;;;;;;;11.55;70.63;101765.84;5055712;28;20029;-46
2022/05/06 02:53:56;;;;;;;17.00;9.90;;;;;;;11.58;70.83;101773.56;5055482;28;20026;-46
2022/05/06 02:56:22;;;;;;;17.75;9.85;;;;;;;11.51;71.35;101768.00;5055283;28;20029;-47
2022/05/06 02:58:48;;;;;;;17.85;10.05;;;;;;;11.54;70.94;101772.25;5020891;28;20086;-46
2022/05/06 03:01:14;;;;;;;14.35;9.63;;;;;;;11.52;70.59;101775.09;5037524;28;20029;-47
2022/05/06 03:03:40;;;;;;;22.15;10.68;;;;;;;11.49;70.85;101774.59;5055336;28;20028;-46
2022/05/06 03:06:05;;;;;;;12.35;8.90;;;;;;;11.16;70.94;101734.19;5055416;28;20032;-46
2022/05/06 03:08:31;;;;;;;19.83;10.32;;;;;;;11.42;70.69;101774.41;5055020;28;20035;-46
2022/05/06 03:10:58;;;;;;;18.40;9.75;;;;;;;11.40;71.06;101777.28;5055012;28;20216;-47
2022/05/06 03:13:24;;;;;;;18.20;10.35;;;;;;;11.37;70.48;101779.47;5056159;28;20563;-47
2022/05/06 03:15:50;;;;;;;20.75;10.68;;;;;;;11.19;70.74;101752.69;5056932;28;20112;-49
2022/05/06 03:18:16;;;;;;;14.85;8.85;;;;;;;11.31;70.32;101780.97;5056885;28;20025;-45
2022/05/06 03:20:43;;;;;;;17.63;11.32;;;;;;;11.29;70.97;101780.28;5038902;28;20068;-49
2022/05/06 03:23:09;;;;;;;15.52;10.65;;;;;;;11.27;71.04;101776.91;5057335;28;20056;-45
2022/05/06 03:25:35;;;;;;;22.33;10.73;;;;;;;11.26;71.10;101783.31;5053680;28;20095;-45
2022/05/06 03:28:03;;;;;;;25.77;10.38;;;;;;;11.24;71.12;101774.56;5054621;28;20033;-45
2022/05/06 03:30:31;;;;;;;12.60;8.55;;;;;;;11.13;71.44;101782.94;5054584;28;20025;-46
2022/05/06 03:32:58;;;;;;;13.82;7.78;;;;;;;11.06;71.41;101776.53;5054360;28;20500;-46
2022/05/06 03:35:27;;;;;;;18.17;9.15;;;;;;;10.99;71.63;101785.25;5036720;28;20044;-45
2022/05/06 03:37:52;;;;;;;18.98;9.32;;;;;;;10.81;71.49;101763.03;5054710;28;20037;-46
2022/05/06 03:40:18;;;;;;;11.85;8.82;;;;;;;10.64;72.29;101759.44;5036584;28;20028;-45
2022/05/06 03:42:44;;;;;;;17.70;8.95;;;;;;;10.69;72.21;101775.09;5054416;28;20025;-46
2022/05/06 03:45:10;;;;;;;16.73;8.55;;;;;;;10.68;72.33;101770.69;5054658;28;20045;-49
2022/05/06 03:47:36;;;;;;;16.92;10.32;;;;;;;10.70;72.86;101771.38;5055634;28;20045;-50
2022/05/06 03:52:51;;;;;;;17.45;10.60;;;;;;;10.81;72.27;101765.72;5042027;28;20046;-48
2022/05/06 03:55:17;;;;;;;17.25;9.57;;;;;;;10.66;71.86;101744.03;5056320;28;20029;-48
2022/05/06 03:57:43;;;;;;;17.75;9.77;;;;;;;10.78;72.32;101766.06;5055717;28;20178;-47
2022/05/06 04:00:10;;;;;;;17.70;9.98;;;;;;;10.67;72.90;101760.97;5054353;28;20051;-47
2022/05/06 04:02:36;;;;;;;15.23;9.27;;;;;;;10.60;72.23;101761.59;5054579;28;20024;-46
2022/05/06 04:05:04;;;;;;;16.30;9.88;;;;;;;10.53;72.52;101763.28;5054591;28;20043;-45
2022/05/06 04:07:29;;;;;;;14.35;9.77;;;;;;;10.43;73.05;101757.16;5036109;28;20025;-46
2022/05/06 04:09:55;;;;;;;17.70;9.30;;;;;;;10.40;73.00;101765.53;5053982;28;20161;-47
2022/05/06 04:12:23;;;;;;;22.50;11.90;;;;;;;10.24;73.49;101751.00;5054018;28;20036;-47
2022/05/06 04:14:50;;;;;;;23.42;12.43;;;;;;;10.32;74.11;101765.50;5054984;28;20029;-45
2022/05/06 04:17:16;;;;;;;22.13;11.13;;;;;;;10.38;74.10;101770.22;5052622;28;20098;-46
2022/05/06 04:23:29;;;;;;;13.63;9.73;;;;;;;10.37;73.89;101765.88;5053765;28;20032;-47
2022/05/06 04:25:15;;;;;;;12.27;9.25;;;;;;;10.30;73.91;101770.16;5021738;28;20029;-46
2022/05/06 04:27:42;;;;;;;17.98;9.82;;;;;;;10.14;73.95;101750.28;5035621;28;20141;-47
2022/05/06 04:30:09;;;;;;;16.00;9.68;;;;;;;10.19;74.25;101769.44;5036580;28;20029;-47
2022/05/06 04:32:35;;;;;;;14.95;9.30;;;;;;;10.14;73.78;101768.22;5054196;28;20174;-46
2022/05/06 04:35:04;;;;;;;16.00;9.68;;;;;;;10.12;73.88;101768.38;5054011;28;20342;-46
2022/05/06 04:37:30;;;;;;;13.55;9.55;;;;;;;10.03;74.10;101763.97;5054409;28;20029;-47
2022/05/06 04:39:57;;;;;;;14.98;10.15;;;;;;;10.05;74.62;101778.09;5054141;28;20382;-46
2022/05/06 04:42:23;;;;;;;15.77;10.70;;;;;;;9.83;75.17;101750.75;5035741;28;20432;-46
2022/05/06 04:44:49;;;;;;;19.35;12.18;;;;;;;9.94;75.79;101763.06;5053856;28;20099;-46
2022/05/06 04:47:15;;;;;;;24.98;13.05;;;;;;;9.99;76.40;101782.25;5055232;28;20032;-46
2022/05/06 04:49:40;;;;;;;16.83;10.35;;;;;;;9.91;76.02;101759.88;5037692;28;20052;-46
2022/05/06 04:52:07;;;;;;;18.38;10.57;;;;;;;10.05;75.28;101783.44;5039017;28;20044;-48
2022/05/06 04:54:32;;;;;;;18.27;11.68;;;;;;;10.02;76.12;101775.69;5039327;28;20032;-50
2022/05/06 04:56:58;;;;;;;20.27;11.52;;;;;;;10.06;75.45;101772.53;5057492;28;20028;-47
2022/05/06 04:59:24;;;;;;;22.52;13.25;;;;;;;10.16;75.28;101780.50;5052861;28;20033;-46
2022/05/06 05:01:50;;;;;;;19.45;11.27;;;;;;;10.31;74.93;101793.34;5052599;28;20071;-46
2022/05/06 05:04:16;;;;;;;28.10;14.55;;;;;;;10.38;75.65;101797.09;5053068;28;20036;-51
2022/05/06 05:06:42;;;;;;;27.42;13.70;;;;;;;10.48;75.01;101799.69;5051619;28;20025;-46
2022/05/06 05:09:08;;;;;;;33.53;14.90;;;;;;;10.49;75.18;101783.38;5051852;28;20025;-48
2022/05/06 05:11:34;;;;;;;27.05;14.80;;;;;;;10.64;75.44;101797.91;5034767;28;20084;-46
2022/05/06 05:14:03;;;;;;;30.50;16.05;;;;;;;10.66;75.42;101797.75;5053048;28;20087;-48
2022/05/06 05:16:29;;;;;;;38.17;15.50;;;;;;;10.81;75.00;101806.88;5035293;28;20029;-47
2022/05/06 05:18:55;;;;;;;33.78;16.23;;;;;;;10.87;75.70;101812.63;5053267;28;20029;-46
2022/05/06 05:21:21;;;;;;;30.40;16.20;;;;;;;10.85;75.26;101794.78;5052916;28;20542;-46
2022/05/06 05:23:46;;;;;;;26.77;14.20;;;;;;;10.99;74.74;101812.13;5052749;28;20040;-46
2022/05/06 05:26:12;;;;;;;33.35;15.68;;;;;;;11.02;74.73;101811.81;5052768;28;20033;-46
2022/05/06 05:28:46;;;;;;;33.70;16.20;;;;;;;11.09;75.21;101811.16;5036692;28;20480;-46
2022/05/06 05:31:19;;;;;;;32.25;16.27;;;;;;;11.12;74.48;101811.66;5036705;28;20056;-47
2022/05/06 05:33:53;;;;;;;32.67;15.60;;;;;;;11.10;74.47;101805.59;5053230;28;20031;-48
2022/05/06 05:36:29;;;;;;;32.10;18.17;;;;;;;11.15;74.65;101821.25;5054691;28;20071;-49
2022/05/06 05:39:06;;;;;;;29.95;16.77;;;;;;;11.15;75.14;101813.19;5054367;28;20485;-48
2022/05/06 05:41:35;;;;;;;36.22;16.75;;;;;;;11.26;74.48;101826.34;5054064;28;20025;-47
2022/05/06 05:49:53;;;;;;;35.40;17.48;;;;;;;11.09;75.78;101825.44;5073576;28;20040;-47
2022/05/06 05:52:42;;;;;;;33.13;17.63;;;;;;;11.09;76.21;101832.66;5073335;28;20035;-47
2022/05/06 05:55:18;;;;;;;33.28;17.50;;;;;;;11.08;76.12;101844.44;5052906;28;20041;-47
2022/05/06 05:57:47;;;;;;;34.30;18.00;;;;;;;11.07;76.29;101840.91;5074201;28;20074;-48
2022/05/06 06:00:17;;;;;;;33.20;17.77;;;;;;;11.03;76.46;101845.75;5074395;28;20492;-47
2022/05/06 06:02:59;;;;;;;28.20;17.13;;;;;;;11.05;76.00;101840.22;5074270;28;20063;-46
2022/05/06 06:05:31;;;;;;;30.20;16.95;;;;;;;11.05;76.82;101826.78;5075965;28;20381;-46
2022/05/06 06:07:57;;;;;;;33.90;18.10;;;;;;;11.07;76.80;101837.34;5075162;28;20059;-47
2022/05/06 06:10:25;;;;;;;33.85;17.50;;;;;;;11.06;76.81;101830.31;5074716;28;20028;-52
2022/05/06 06:12:51;;;;;;;33.85;18.35;;;;;;;11.10;77.06;101834.34;5076710;28;20046;-46
2022/05/06 06:15:20;;;;;;;33.17;17.40;;;;;;;11.14;76.03;101831.16;5079218;28;20384;-46
2022/05/06 06:17:49;;;;;;;31.65;18.10;;;;;;;11.16;76.54;101839.94;5079618;28;20032;-45
2022/05/06 06:20:15;;;;;;;34.47;17.75;;;;;;;11.19;76.37;101842.28;5079168;28;20060;-46
2022/05/06 06:22:44;;;;;;;26.95;16.60;;;;;;;11.20;76.59;101835.91;5080135;28;20029;-48
2022/05/06 06:25:13;;;;;;;34.70;17.48;;;;;;;11.06;76.14;101803.44;5080064;28;20035;-47
2022/05/06 06:27:39;;;;;;;31.55;17.20;;;;;;;11.27;76.07;101828.00;5078089;28;20527;-46
2022/05/06 06:30:06;;;;;;;30.23;17.13;;;;;;;11.30;75.78;101838.44;5059236;28;20068;-48
2022/05/06 06:36:39;;;;;;;33.05;18.40;;;;;;;11.33;76.25;101829.19;5079337;28;20036;-51
2022/05/06 06:42:30;;;;;;;34.75;17.48;;;;;;;11.36;75.86;101827.00;5076408;28;20507;-47
2022/05/06 06:45:29;;;;;;;34.47;18.60;;;;;;;11.41;75.61;101823.84;5074372;28;20037;-48
2022/05/06 06:48:05;;;;;;;32.45;15.43;;;;;;;11.46;74.84;101818.81;5026882;28;20044;-50
2022/05/06 06:50:31;;;;;;;29.88;16.05;;;;;;;11.42;74.67;101810.22;5058070;28;20033;-47
2022/05/06 06:53:01;;;;;;;29.25;17.23;;;;;;;11.57;75.09;101820.31;5040797;28;20126;-48
2022/05/06 06:55:26;;;;;;;32.25;18.08;;;;;;;11.61;75.29;101819.81;5057345;28;20035;-47
2022/05/06 06:57:52;;;;;;;35.58;19.30;;;;;;;11.55;75.10;101790.91;5055550;28;20112;-49
2022/05/06 07:00:20;;;;;;;33.00;19.08;;;;;;;11.72;74.75;101815.09;5056596;28;20060;-48
2022/05/06 07:03:03;;;;;;;;;;;;;;;;;;;;;
2022/05/06 07:14:05;;;;;;;37.42;21.30;;;;;;;11.70;74.32;101783.00;5041111;28;20048;-47
2022/05/06 07:16:37;;;;;;;32.33;19.63;;;;;;;11.98;74.25;101817.69;5057386;28;20024;-47
2022/05/06 07:19:16;;;;;;;;;;;;;;;;;;;;;
2022/05/06 07:21:55;;;;;;;34.90;18.83;;;;;;;12.09;74.13;101829.94;5056558;28;20047;-47
2022/05/06 07:24:25;;;;;;;31.85;19.65;;;;;;;12.08;73.59;101812.13;5038130;28;20055;-49
2022/05/06 07:26:54;;;;;;;31.42;19.02;;;;;;;12.18;73.64;101815.44;5039030;28;20416;-49
2022/05/06 07:29:41;;;;;;;36.60;20.15;;;;;;;12.17;73.41;101819.16;5038092;28;20025;-49
2022/05/06 07:32:11;;;;;;;32.97;19.33;;;;;;;12.19;72.21;101823.38;5056393;28;20051;-50
2022/05/06 07:34:47;;;;;;;35.42;18.58;;;;;;;12.23;72.42;101813.09;5056141;28;20036;-47
2022/05/06 07:37:13;;;;;;;31.63;19.38;;;;;;;12.24;71.64;101814.78;5056228;28;20440;-47
2022/05/06 07:39:49;;;;;;;32.67;20.15;;;;;;;12.26;71.45;101812.75;5055827;28;20443;-48
2022/05/06 07:42:16;;;;;;;33.67;20.55;;;;;;;12.34;71.71;101812.72;5053332;28;20041;-46
2022/05/06 07:44:42;;;;;;;44.10;21.63;;;;;;;12.37;71.15;101806.19;5054233;28;20029;-47
2022/05/06 07:47:08;;;;;;;35.53;20.08;;;;;;;12.38;71.01;101805.16;5054393;28;20036;-46
2022/05/06 07:49:33;;;;;;;29.73;20.38;;;;;;;12.51;71.26;101794.66;5054390;28;20028;-48
2022/05/06 07:51:59;;;;;;;39.85;22.05;;;;;;;12.54;70.92;101798.88;5054471;28;20393;-47
2022/05/06 07:54:25;;;;;;;34.97;21.25;;;;;;;12.56;70.95;101799.53;5054009;28;20037;-47
2022/05/06 07:56:51;;;;;;;39.33;21.33;;;;;;;12.67;70.34;101798.31;5054240;28;20507;-46
2022/05/06 07:59:16;;;;;;;37.30;21.00;;;;;;;12.71;69.47;101799.66;5054137;28;20052;-48
2022/05/06 08:04:37;;;;;;;38.13;21.80;;;;;;;12.85;69.80;101788.13;5039751;28;20532;-50
2022/05/06 08:07:05;;;;;;;;;;;;;;;12.89;70.25;101792.16;5055880;28;20036;-46
2022/05/06 08:09:31;;;;;;;39.20;22.58;;;;;;;12.98;69.82;101790.25;5053880;28;20285;-48
2022/05/06 08:11:57;;;;;;;38.38;22.45;;;;;;;13.08;69.48;101788.16;5052289;28;20056;-46
2022/05/06 08:14:23;;;;;;;39.03;22.30;;;;;;;13.10;68.73;101786.13;5053747;28;20037;-46
2022/05/06 08:16:50;;;;;;;38.67;21.15;;;;;;;13.17;67.89;101783.56;5054043;28;20424;-46
2022/05/06 08:19:17;;;;;;;36.83;21.02;;;;;;;13.25;67.59;101791.59;5036011;28;20032;-47
2022/05/06 08:21:43;;;;;;;34.58;19.30;;;;;;;13.30;66.66;101789.25;5053629;28;20029;-47
2022/05/06 08:24:09;;;;;;;35.90;18.75;;;;;;;13.40;66.33;101790.88;5053227;28;20485;-46
2022/05/06 08:26:36;;;;;;;34.33;20.75;;;;;;;13.38;65.93;101774.84;5053235;28;20037;-46
2022/05/06 08:29:03;;;;;;;30.95;19.63;;;;;;;13.51;65.65;101790.44;5053213;28;20029;-46
2022/05/06 08:31:32;;;;;;;32.53;21.08;;;;;;;13.57;65.00;101783.50;5035210;28;20031;-46
2022/05/06 08:33:58;;;;;;;29.02;19.38;;;;;;;13.67;64.79;101782.22;5053015;28;20110;-46
2022/05/06 08:36:26;;;;;;;31.08;19.13;;;;;;;13.82;64.29;101787.66;5052705;28;20040;-48
2022/05/06 08:38:55;;;;;;;28.75;17.83;;;;;;;13.92;63.85;101790.09;5053156;28;20029;-47
2022/05/06 08:41:23;;;;;;;30.25;19.05;;;;;;;14.10;63.25;101769.00;5053982;28;20036;-47
2022/05/06 08:43:49;;;;;;;33.20;18.23;;;;;;;14.94;61.75;101777.81;5053824;28;20060;-46
2022/05/06 08:51:49;;;;;;;24.83;16.98;;;;;;;17.59;55.00;101758.84;5025080;28;20033;-47
2022/05/06 08:54:17;;;;;;;24.95;17.92;;;;;;;18.34;53.00;101755.84;5055522;28;20024;-47
2022/05/06 08:56:43;;;;;;;28.58;19.02;;;;;;;19.01;50.28;101754.75;5055541;28;20040;-47
2022/05/06 08:59:10;;;;;;;28.90;18.90;;;;;;;19.37;48.69;101756.84;5054418;28;20029;-49
2022/05/06 09:01:35;;;;;;;27.88;17.27;;;;;;;19.58;50.30;101757.53;5036311;28;20033;-46
2022/05/06 09:04:01;;;;;;;24.88;17.17;;;;;;;20.14;48.37;101751.16;5053196;28;20063;-47
2022/05/06 09:06:31;;;;;;;22.73;16.73;;;;;;;20.55;46.06;101759.72;5052043;28;20426;-49
2022/05/06 09:08:59;;;;;;;21.48;15.98;;;;;;;21.06;45.52;101752.97;5035111;28;20029;-46
2022/05/06 09:14:16;;;;;;;16.02;13.40;;;;;;;21.67;42.67;101733.78;5038123;28;20051;-48
2022/05/06 09:16:44;;;;;;;17.00;14.43;;;;;;;21.93;41.98;101755.19;5052452;28;20030;-47
2022/05/06 09:19:28;;;;;;;19.33;13.30;;;;;;;22.14;40.66;101748.28;5052627;28;20029;-47
2022/05/06 09:22:05;;;;;;;13.73;12.10;;;;;;;22.63;39.38;101747.16;5052597;28;20029;-46
2022/05/06 09:24:42;;;;;;;16.38;11.95;;;;;;;22.91;42.56;101749.88;5036349;28;20112;-50
2022/05/06 09:27:21;;;;;;;17.23;11.95;;;;;;;23.00;39.31;101748.41;5052805;28;20474;-47
2022/05/06 09:29:52;;;;;;;16.45;11.73;;;;;;;23.32;39.73;101750.66;5053993;28;20385;-48
2022/05/06 09:32:39;;;;;;;13.35;11.30;;;;;;;23.50;37.73;101737.81;5046315;28;20043;-48
2022/05/06 09:35:12;;;;;;;12.32;9.60;;;;;;;24.12;36.29;101725.84;5053358;28;20028;-47
2022/05/06 09:37:44;;;;;;;17.38;10.52;;;;;;;24.37;37.22;101721.75;5034536;28;20024;-46
2022/05/06 09:40:16;;;;;;;14.30;10.48;;;;;;;24.78;35.84;101723.13;5052804;28;20025;-46
2022/05/06 09:42:44;;;;;;;13.30;10.68;;;;;;;24.83;35.11;101714.09;5034967;28;20029;-47
2022/05/06 09:45:12;;;;;;;12.05;10.32;;;;;;;24.98;37.60;101696.91;5052614;28;20056;-47
2022/05/06 09:47:38;;;;;;;12.27;10.80;;;;;;;25.09;34.91;101710.53;5037435;28;20022;-48
2022/05/06 09:50:07;;;;;;;10.57;9.43;;;;;;;25.66;34.74;101713.75;5057553;28;20030;-46
2022/05/06 09:52:33;;;;;;;8.90;8.10;;;;;;;25.81;35.17;101732.28;5056983;28;20032;-49
2022/05/06 09:55:00;;;;;;;11.75;8.55;;;;;;;25.84;32.60;101727.06;5057220;28;20029;-49
2022/05/06 09:57:27;;;;;;;10.88;9.15;;;;;;;25.71;32.95;101729.47;5056847;28;20029;-47
2022/05/06 09:59:52;;;;;;;10.57;9.15;;;;;;;25.96;34.54;101723.31;5057444;28;20033;-48
2022/05/06 10:02:36;;;;;;;;;;;;;;;;;;;;;
2022/05/06 10:05:08;;;;;;;9.43;8.38;;;;;;;26.06;32.26;101715.13;5058491;28;20063;-47
2022/05/06 10:07:37;;;;;;;11.55;8.52;;;;;;;26.03;32.75;101707.41;5057657;28;20029;-48
2022/05/06 10:10:07;;;;;;;10.82;9.02;;;;;;;25.96;32.16;101717.81;5057603;28;20037;-47
2022/05/06 10:12:44;;;;;;;9.07;7.85;;;;;;;26.26;30.60;101720.72;5058451;28;20033;-46
2022/05/06 10:15:13;;;;;;;8.05;7.45;;;;;;;26.27;31.41;101714.09;5040229;28;20072;-47
2022/05/06 10:17:49;;;;;;;8.23;7.40;;;;;;;26.08;29.87;101719.25;5056882;28;20567;-47
2022/05/06 10:20:47;;;;;;;8.57;6.72;;;;;;;26.09;30.65;101720.06;5038558;28;20036;-48
2022/05/06 10:23:15;;;;;;;7.38;6.78;;;;;;;26.21;31.06;101725.38;5044152;28;20071;-49
2022/05/06 10:25:48;;;;;;;11.27;7.95;;;;;;;26.49;31.70;101726.06;5057139;28;20083;-47
2022/05/06 10:34:29;;;;;;;9.73;7.60;;;;;;;28.09;30.70;101717.59;5041323;28;20090;-47
2022/05/06 10:37:00;;;;;;;9.18;8.30;;;;;;;28.38;30.38;101705.91;5055993;28;20040;-53
2022/05/06 10:39:34;;;;;;;8.70;7.75;;;;;;;28.63;30.71;101704.13;5056069;28;20079;-48
2022/05/06 10:42:16;;;;;;;9.10;7.05;;;;;;;27.81;29.97;101710.75;5056456;28;20029;-46
2022/05/06 10:44:48;;;;;;;8.55;7.47;;;;;;;27.93;29.22;101704.94;5054437;28;20045;-49
2022/05/06 10:47:47;;;;;;;8.52;7.35;;;;;;;28.52;27.57;101698.66;5075844;28;20039;-46
2022/05/06 10:50:15;;;;;;;6.57;6.07;;;;;;;29.05;28.32;101700.81;5057702;28;20028;-50
2022/05/06 10:52:42;;;;;;;7.90;7.18;;;;;;;29.28;27.04;101706.72;5075685;28;20362;-47
2022/05/06 10:55:12;;;;;;;9.77;6.40;;;;;;;29.38;28.21;101691.97;5075761;28;20058;-46
2022/05/06 10:57:56;;;;;;;7.43;6.45;;;;;;;29.49;26.15;101693.53;5075633;28;20484;-46
2022/05/06 11:00:23;;;;;;;6.88;6.38;;;;;;;29.34;27.24;101683.41;5075362;28;20028;-46
2022/05/06 11:02:50;;;;;;;6.43;5.80;;;;;;;29.80;26.81;101687.72;5075482;28;20032;-45
2022/05/06 11:05:17;;;;;;;7.35;6.22;;;;;;;29.91;25.85;101678.16;5076117;28;20028;-49
2022/05/06 11:07:45;;;;;;;6.28;5.68;;;;;;;29.95;25.66;101681.16;5075555;28;20111;-47
2022/05/06 11:10:19;;;;;;;10.32;6.13;;;;;;;30.28;25.47;101682.94;5074835;28;20028;-49
2022/05/06 11:12:48;;;;;;;6.88;6.28;;;;;;;30.56;24.13;101676.78;5057104;28;20246;-48
2022/05/06 11:15:16;;;;;;;7.90;6.05;;;;;;;30.28;23.59;101680.19;5057364;28;20160;-48
2022/05/06 11:17:44;;;;;;;6.22;5.40;;;;;;;30.76;24.27;101670.94;5075137;28;20462;-47
2022/05/06 11:20:29;;;;;;;6.22;5.30;;;;;;;30.98;23.97;101670.34;5057423;28;20461;-47
2022/05/06 11:23:06;;;;;;;6.47;5.13;;;;;;;31.20;23.96;101660.53;5057118;28;20051;-47
2022/05/06 11:25:35;;;;;;;5.57;5.07;;;;;;;31.35;22.42;101665.81;5074863;28;20032;-48
2022/05/06 11:28:03;;;;;;;5.50;5.10;;;;;;;31.31;22.76;101656.44;5074733;28;20025;-49
2022/05/06 11:30:30;;;;;;;5.72;5.32;;;;;;;31.12;23.56;101669.56;5056823;28;20477;-47
2022/05/06 11:33:00;;;;;;;7.05;5.95;;;;;;;31.11;22.89;101665.97;5056512;28;20040;-52
2022/05/06 11:35:30;;;;;;;6.28;5.47;;;;;;;30.96;21.92;101664.28;5056674;28;20044;-49
2022/05/06 11:37:56;;;;;;;7.88;3.67;;;;;;;31.05;23.37;101669.94;5074846;28;20032;-48
2022/05/06 11:43:06;;;;;;;7.20;4.80;;;;;;;30.50;21.19;101664.97;5058453;28;20028;-46
2022/05/06 11:48:22;;;;;;;6.57;4.50;;;;;;;31.00;22.23;101667.25;5025614;28;20385;-46
2022/05/06 11:50:56;;;;;;;5.28;4.60;;;;;;;31.18;22.15;101660.00;5037172;28;20036;-46
2022/05/06 11:53:27;;;;;;;5.75;3.83;;;;;;;31.38;21.48;101656.88;5054281;28;20029;-46
2022/05/06 11:55:55;;;;;;;4.50;4.10;;;;;;;31.33;22.60;101653.34;5036435;28;20389;-46
2022/05/06 11:58:22;;;;;;;5.82;4.05;;;;;;;31.01;22.81;101664.16;5036034;28;20119;-45
2022/05/06 12:00:50;;;;;;;5.03;4.63;;;;;;;30.93;22.05;101669.59;5054909;28;20029;-48
2022/05/06 12:03:16;;;;;;;6.65;5.20;;;;;;;30.45;22.67;101663.06;5021439;28;20112;-49
2022/05/06 12:05:42;;;;;;;7.63;5.10;;;;;;;30.05;23.84;101668.03;5056764;28;20037;-46
2022/05/06 12:08:08;;;;;;;6.00;5.18;;;;;;;29.50;23.23;101642.59;5056099;28;20025;-50
2022/05/06 12:10:36;;;;;;;5.65;4.85;;;;;;;29.28;23.57;101648.63;5036434;28;20025;-48
2022/05/06 12:13:10;;;;;;;6.95;4.22;;;;;;;29.65;23.11;101655.44;5038331;28;20404;-47
2022/05/06 12:15:38;;;;;;;5.65;4.78;;;;;;;30.38;22.26;101647.94;5054708;28;20039;-49
2022/05/06 12:18:21;;;;;;;5.82;4.85;;;;;;;30.35;22.19;101642.97;5052568;28;20492;-50
2022/05/06 12:20:47;;;;;;;7.45;5.13;;;;;;;30.32;21.55;101649.91;5036733;28;20112;-47
2022/05/06 12:23:14;;;;;;;5.32;4.82;;;;;;;29.70;23.36;101645.13;5052854;28;20079;-49